China Township, Michigan
Current Conditions -  °F | °C
As of 9:37 PM on Friday 28 Nov 2014 (Local Time) from KPHN Reporting Station
Light Snow Light Snow  
Wind Chill: 19°   Ceiling: 1700
Heat Index: 27°   Visibility: 7mi
Dew Point: 25°   Wind: 7mph
Humidity: 93%   Direction: 170°S
Pressure: 30.13"   Gusts: NA
Location:  42.7808°N, 82.6288°W
Report Text: KPHN 290237Z AUTO 17006KT 7SM -SN SCT010 OVC017 M03/M04 A3013 RMK AO2
Loading
Personal Weather Stations






























Interactive Weather Map New forecast layout! Learn more

10-Day Weather Forecast

Advertisements
Track Severe Weather on mobile